sensor_id;sensor_type;location;lat;lon;timestamp;pressure;altitude;pressure_sealevel;temperature;humidity
77147;BME280;66121;52.584;9.694;2023-08-06T00:02:06;100393.69;;;14.71;100.00
77147;BME280;66121;52.584;9.694;2023-08-06T00:04:52;100409.47;;;14.78;100.00
77147;BME280;66121;52.584;9.694;2023-08-06T00:07:38;100395.19;;;14.76;100.00
77147;BME280;66121;52.584;9.694;2023-08-06T00:10:23;100385.72;;;14.73;100.00
77147;BME280;66121;52.584;9.694;2023-08-06T00:13:09;100405.09;;;14.80;100.00
77147;BME280;66121;52.584;9.694;2023-08-06T00:15:55;100397.63;;;14.74;100.00
77147;BME280;66121;52.584;9.694;2023-08-06T00:18:40;100408.25;;;14.79;100.00
77147;BME280;66121;52.584;9.694;2023-08-06T00:21:26;100394.91;;;14.70;100.00
77147;BME280;66121;52.584;9.694;2023-08-06T00:24:12;100401.63;;;14.73;100.00
77147;BME280;66121;52.584;9.694;2023-08-06T00:26:57;100397.72;;;14.67;100.00
77147;BME280;66121;52.584;9.694;2023-08-06T00:29:43;100386.19;;;14.68;100.00
77147;BME280;66121;52.584;9.694;2023-08-06T00:32:28;100392.75;;;14.81;100.00
77147;BME280;66121;52.584;9.694;2023-08-06T00:35:14;100397.94;;;14.79;100.00
77147;BME280;66121;52.584;9.694;2023-08-06T00:38:00;100387.34;;;14.71;100.00
77147;BME280;66121;52.584;9.694;2023-08-06T00:40:45;100376.78;;;14.62;100.00
77147;BME280;66121;52.584;9.694;2023-08-06T00:43:31;100385.50;;;14.61;100.00
77147;BME280;66121;52.584;9.694;2023-08-06T00:46:17;100384.66;;;14.64;100.00
77147;BME280;66121;52.584;9.694;2023-08-06T00:49:04;100369.63;;;14.61;100.00
77147;BME280;66121;52.584;9.694;2023-08-06T00:51:50;100369.63;;;14.61;100.00
77147;BME280;66121;52.584;9.694;2023-08-06T00:54:35;100359.84;;;14.53;100.00
77147;BME280;66121;52.584;9.694;2023-08-06T00:57:24;100365.59;;;14.66;100.00
77147;BME280;66121;52.584;9.694;2023-08-06T01:00:11;100373.84;;;14.73;100.00
77147;BME280;66121;52.584;9.694;2023-08-06T01:02:57;100360.22;;;14.82;100.00
77147;BME280;66121;52.584;9.694;2023-08-06T01:05:43;100348.78;;;14.76;100.00
77147;BME280;66121;52.584;9.694;2023-08-06T01:11:44;100346.84;;;14.73;100.00
77147;BME280;66121;52.584;9.694;2023-08-06T01:14:59;100343.91;;;14.84;100.00
77147;BME280;66121;52.584;9.694;2023-08-06T01:17:46;100347.03;;;14.86;100.00
77147;BME280;66121;52.584;9.694;2023-08-06T01:20:31;100338.53;;;14.97;100.00
77147;BME280;66121;52.584;9.694;2023-08-06T01:23:18;100325.25;;;14.84;100.00
77147;BME280;66121;52.584;9.694;2023-08-06T01:26:14;100308.75;;;14.74;100.00
77147;BME280;66121;52.584;9.694;2023-08-06T01:29:22;100315.75;;;14.82;100.00
77147;BME280;66121;52.584;9.694;2023-08-06T01:32:11;100315.44;;;14.76;100.00
77147;BME280;66121;52.584;9.694;2023-08-06T01:34:59;100318.91;;;14.84;100.00
77147;BME280;66121;52.584;9.694;2023-08-06T01:37:46;100310.69;;;14.77;100.00
77147;BME280;66121;52.584;9.694;2023-08-06T01:40:32;100321.63;;;14.88;100.00
77147;BME280;66121;52.584;9.694;2023-08-06T01:43:19;100306.03;;;14.70;100.00
77147;BME280;66121;52.584;9.694;2023-08-06T01:46:05;100318.69;;;14.71;100.00
77147;BME280;66121;52.584;9.694;2023-08-06T01:48:50;100304.47;;;14.69;100.00
77147;BME280;66121;52.584;9.694;2023-08-06T01:51:36;100307.88;;;14.80;100.00
77147;BME280;66121;52.584;9.694;2023-08-06T01:54:22;100297.44;;;14.88;100.00
77147;BME280;66121;52.584;9.694;2023-08-06T01:57:08;100297.13;;;14.82;100.00
77147;BME280;66121;52.584;9.694;2023-08-06T01:59:53;100288.03;;;14.78;100.00
77147;BME280;66121;52.584;9.694;2023-08-06T02:02:39;100301.91;;;14.78;100.00
77147;BME280;66121;52.584;9.694;2023-08-06T02:05:26;100292.41;;;14.79;100.00
77147;BME280;66121;52.584;9.694;2023-08-06T02:08:12;100297.94;;;14.79;100.00
77147;BME280;66121;52.584;9.694;2023-08-06T02:10:57;100290.81;;;14.78;100.00
77147;BME280;66121;52.584;9.694;2023-08-06T02:13:43;100289.03;;;14.92;100.00
77147;BME280;66121;52.584;9.694;2023-08-06T02:16:29;100297.84;;;14.87;100.00
77147;BME280;66121;52.584;9.694;2023-08-06T02:19:15;100297.03;;;14.86;100.00
77147;BME280;66121;52.584;9.694;2023-08-06T02:22:00;100281.31;;;14.76;100.00
77147;BME280;66121;52.584;9.694;2023-08-06T02:24:49;100289.09;;;14.88;100.00
77147;BME280;66121;52.584;9.694;2023-08-06T02:27:34;100285.28;;;14.52;100.00
77147;BME280;66121;52.584;9.694;2023-08-06T02:30:20;100280.31;;;14.40;100.00
77147;BME280;66121;52.584;9.694;2023-08-06T02:33:06;100249.41;;;14.07;100.00
77147;BME280;66121;52.584;9.694;2023-08-06T02:35:59;100292.13;;;14.44;100.00
77147;BME280;66121;52.584;9.694;2023-08-06T02:38:45;100256.38;;;14.19;100.00
77147;BME280;66121;52.584;9.694;2023-08-06T02:41:30;100228.75;;;14.12;100.00
77147;BME280;66121;52.584;9.694;2023-08-06T02:44:16;100253.81;;;14.35;100.00
77147;BME280;66121;52.584;9.694;2023-08-06T02:47:02;100275.28;;;14.58;100.00
77147;BME280;66121;52.584;9.694;2023-08-06T02:49:47;100268.88;;;14.61;100.00
77147;BME280;66121;52.584;9.694;2023-08-06T02:52:33;100282.13;;;14.76;100.00
77147;BME280;66121;52.584;9.694;2023-08-06T02:55:19;100268.00;;;14.67;100.00
77147;BME280;66121;52.584;9.694;2023-08-06T02:58:05;100268.16;;;14.57;100.00
77147;BME280;66121;52.584;9.694;2023-08-06T03:03:46;100277.16;;;14.64;100.00
77147;BME280;66121;52.584;9.694;2023-08-06T03:06:31;100264.47;;;14.63;100.00
77147;BME280;66121;52.584;9.694;2023-08-06T03:09:18;100244.13;;;14.47;100.00
77147;BME280;66121;52.584;9.694;2023-08-06T03:12:04;100250.59;;;14.63;100.00
77147;BME280;66121;52.584;9.694;2023-08-06T03:14:49;100247.88;;;14.60;100.00
77147;BME280;66121;52.584;9.694;2023-08-06T03:17:35;100243.41;;;14.66;100.00
77147;BME280;66121;52.584;9.694;2023-08-06T03:20:21;100243.47;;;14.62;100.00
77147;BME280;66121;52.584;9.694;2023-08-06T03:23:07;100257.56;;;14.75;100.00
77147;BME280;66121;52.584;9.694;2023-08-06T03:25:52;100253.19;;;14.74;100.00
77147;BME280;66121;52.584;9.694;2023-08-06T03:28:38;100238.25;;;14.68;100.00
77147;BME280;66121;52.584;9.694;2023-08-06T03:31:23;100229.91;;;14.68;100.00
77147;BME280;66121;52.584;9.694;2023-08-06T03:34:09;100233.09;;;14.66;100.00
77147;BME280;66121;52.584;9.694;2023-08-06T03:36:55;100235.19;;;14.59;100.00
77147;BME280;66121;52.584;9.694;2023-08-06T03:39:40;100210.00;;;14.46;100.00
77147;BME280;66121;52.584;9.694;2023-08-06T03:42:26;100211.03;;;14.56;100.00
77147;BME280;66121;52.584;9.694;2023-08-06T03:45:11;100213.66;;;14.43;100.00
77147;BME280;66121;52.584;9.694;2023-08-06T03:47:57;100199.84;;;14.36;100.00
77147;BME280;66121;52.584;9.694;2023-08-06T03:50:46;100212.63;;;14.30;100.00
77147;BME280;66121;52.584;9.694;2023-08-06T03:53:32;100199.94;;;14.29;100.00
77147;BME280;66121;52.584;9.694;2023-08-06T03:56:17;100209.78;;;14.37;100.00
77147;BME280;66121;52.584;9.694;2023-08-06T03:59:03;100209.28;;;14.42;100.00
77147;BME280;66121;52.584;9.694;2023-08-06T04:01:49;100189.19;;;14.35;100.00
77147;BME280;66121;52.584;9.694;2023-08-06T04:04:37;100199.81;;;14.40;100.00
77147;BME280;66121;52.584;9.694;2023-08-06T04:07:23;100191.41;;;14.16;100.00
77147;BME280;66121;52.584;9.694;2023-08-06T04:10:09;100197.25;;;14.26;100.00
77147;BME280;66121;52.584;9.694;2023-08-06T04:12:54;100203.03;;;14.38;100.00
77147;BME280;66121;52.584;9.694;2023-08-06T04:15:40;100202.84;;;14.22;100.00
77147;BME280;66121;52.584;9.694;2023-08-06T04:18:26;100187.50;;;14.14;100.00
77147;BME280;66121;52.584;9.694;2023-08-06T04:21:11;100198.25;;;14.08;100.00
77147;BME280;66121;52.584;9.694;2023-08-06T04:23:57;100198.47;;;14.21;100.00
77147;BME280;66121;52.584;9.694;2023-08-06T04:26:43;100203.63;;;14.23;100.00
77147;BME280;66121;52.584;9.694;2023-08-06T04:29:29;100218.94;;;14.34;100.00
77147;BME280;66121;52.584;9.694;2023-08-06T04:32:14;100181.91;;;14.17;100.00
77147;BME280;66121;52.584;9.694;2023-08-06T04:35:00;100192.53;;;14.23;100.00
77147;BME280;66121;52.584;9.694;2023-08-06T04:37:46;100205.06;;;14.34;100.00
77147;BME280;66121;52.584;9.694;2023-08-06T04:40:35;100208.94;;;14.40;100.00
77147;BME280;66121;52.584;9.694;2023-08-06T04:43:21;100213.34;;;14.38;100.00
77147;BME280;66121;52.584;9.694;2023-08-06T04:46:06;100221.75;;;14.57;100.00
77147;BME280;66121;52.584;9.694;2023-08-06T04:48:52;100203.25;;;14.47;100.00
77147;BME280;66121;52.584;9.694;2023-08-06T04:51:38;100201.13;;;14.32;100.00
77147;BME280;66121;52.584;9.694;2023-08-06T04:54:24;100216.59;;;14.33;100.00
77147;BME280;66121;52.584;9.694;2023-08-06T04:57:09;100182.88;;;14.04;100.00
77147;BME280;66121;52.584;9.694;2023-08-06T04:59:55;100189.47;;;14.13;100.00
77147;BME280;66121;52.584;9.694;2023-08-06T05:02:41;100197.72;;;14.20;100.00
77147;BME280;66121;52.584;9.694;2023-08-06T05:05:27;100221.44;;;14.25;100.00
77147;BME280;66121;52.584;9.694;2023-08-06T05:08:16;100186.66;;;14.17;100.00
77147;BME280;66121;52.584;9.694;2023-08-06T05:11:04;100184.56;;;13.98;100.00
77147;BME280;66121;52.584;9.694;2023-08-06T05:13:50;100199.59;;;14.27;100.00
77147;BME280;66121;52.584;9.694;2023-08-06T05:16:36;100186.19;;;14.22;100.00
77147;BME280;66121;52.584;9.694;2023-08-06T05:19:21;100213.41;;;14.57;100.00
77147;BME280;66121;52.584;9.694;2023-08-06T05:22:07;100206.75;;;14.51;100.00
77147;BME280;66121;52.584;9.694;2023-08-06T05:24:53;100212.31;;;14.51;100.00
77147;BME280;66121;52.584;9.694;2023-08-06T05:27:38;100204.66;;;14.59;100.00
77147;BME280;66121;52.584;9.694;2023-08-06T05:30:24;100208.56;;;14.61;100.00
77147;BME280;66121;52.584;9.694;2023-08-06T05:33:09;100200.88;;;14.72;100.00
77147;BME280;66121;52.584;9.694;2023-08-06T05:35:55;100218.69;;;14.98;100.00
77147;BME280;66121;52.584;9.694;2023-08-06T05:38:41;100207.31;;;14.89;100.00
77147;BME280;66121;52.584;9.694;2023-08-06T05:41:27;100203.09;;;14.81;100.00
77147;BME280;66121;52.584;9.694;2023-08-06T05:44:12;100209.59;;;14.94;100.00
77147;BME280;66121;52.584;9.694;2023-08-06T05:46:58;100198.19;;;14.89;100.00
77147;BME280;66121;52.584;9.694;2023-08-06T05:49:43;100203.91;;;15.01;100.00
77147;BME280;66121;52.584;9.694;2023-08-06T05:52:29;100210.78;;;15.16;100.00
77147;BME280;66121;52.584;9.694;2023-08-06T05:55:15;100215.28;;;15.10;100.00
77147;BME280;66121;52.584;9.694;2023-08-06T05:58:00;100214.53;;;15.06;100.00
77147;BME280;66121;52.584;9.694;2023-08-06T06:00:46;100220.66;;;14.98;100.00
77147;BME280;66121;52.584;9.694;2023-08-06T06:03:32;100218.72;;;15.18;100.00
77147;BME280;66121;52.584;9.694;2023-08-06T06:06:17;100225.28;;;15.27;100.00
77147;BME280;66121;52.584;9.694;2023-08-06T06:09:04;100220.53;;;15.48;100.00
77147;BME280;66121;52.584;9.694;2023-08-06T06:11:49;100199.31;;;15.34;100.00
77147;BME280;66121;52.584;9.694;2023-08-06T06:14:35;100219.16;;;15.56;100.00
77147;BME280;66121;52.584;9.694;2023-08-06T06:17:21;100225.38;;;15.63;100.00
77147;BME280;66121;52.584;9.694;2023-08-06T06:20:07;100194.38;;;15.45;100.00
77147;BME280;66121;52.584;9.694;2023-08-06T06:22:53;100199.81;;;15.29;100.00
77147;BME280;66121;52.584;9.694;2023-08-06T06:25:48;100217.59;;;15.35;100.00
77147;BME280;66121;52.584;9.694;2023-08-06T06:28:34;100210.03;;;15.35;100.00
77147;BME280;66121;52.584;9.694;2023-08-06T06:31:20;100218.13;;;15.50;100.00
77147;BME280;66121;52.584;9.694;2023-08-06T06:34:05;100212.09;;;15.71;100.00
77147;BME280;66121;52.584;9.694;2023-08-06T06:36:51;100217.38;;;15.85;100.00
77147;BME280;66121;52.584;9.694;2023-08-06T06:39:37;100224.00;;;15.91;100.00
77147;BME280;66121;52.584;9.694;2023-08-06T06:42:22;100209.31;;;15.71;100.00
77147;BME280;66121;52.584;9.694;2023-08-06T06:45:09;100206.81;;;15.76;100.00
77147;BME280;66121;52.584;9.694;2023-08-06T06:47:54;100207.13;;;15.98;100.00
77147;BME280;66121;52.584;9.694;2023-08-06T06:50:40;100214.88;;;16.42;100.00
77147;BME280;66121;52.584;9.694;2023-08-06T06:53:25;100206.53;;;16.42;100.00
77147;BME280;66121;52.584;9.694;2023-08-06T06:56:14;100201.91;;;16.36;100.00
77147;BME280;66121;52.584;9.694;2023-08-06T06:59:00;100211.59;;;16.47;100.00
77147;BME280;66121;52.584;9.694;2023-08-06T07:01:45;100211.94;;;16.49;100.00
77147;BME280;66121;52.584;9.694;2023-08-06T07:04:31;100202.78;;;16.33;100.00
77147;BME280;66121;52.584;9.694;2023-08-06T07:07:16;100203.97;;;16.67;100.00
77147;BME280;66121;52.584;9.694;2023-08-06T07:10:02;100215.47;;;16.98;100.00
77147;BME280;66121;52.584;9.694;2023-08-06T07:12:48;100201.94;;;17.13;100.00
77147;BME280;66121;52.584;9.694;2023-08-06T07:15:33;100199.25;;;17.54;100.00
77147;BME280;66121;52.584;9.694;2023-08-06T07:18:19;100198.88;;;17.93;99.83
77147;BME280;66121;52.584;9.694;2023-08-06T07:21:05;100195.00;;;18.54;96.55
77147;BME280;66121;52.584;9.694;2023-08-06T07:23:50;100193.88;;;18.64;92.15
77147;BME280;66121;52.584;9.694;2023-08-06T07:26:36;100184.25;;;17.77;95.91
77147;BME280;66121;52.584;9.694;2023-08-06T07:29:21;100174.38;;;17.60;100.00
77147;BME280;66121;52.584;9.694;2023-08-06T07:32:07;100183.47;;;17.89;96.46
77147;BME280;66121;52.584;9.694;2023-08-06T07:34:53;100195.41;;;18.78;96.39
77147;BME280;66121;52.584;9.694;2023-08-06T07:37:45;100180.69;;;18.99;89.92
77147;BME280;66121;52.584;9.694;2023-08-06T07:40:31;100179.59;;;18.96;91.47
77147;BME280;66121;52.584;9.694;2023-08-06T07:43:16;100176.97;;;18.67;93.58
77147;BME280;66121;52.584;9.694;2023-08-06T07:46:02;100169.56;;;18.86;92.12
77147;BME280;66121;52.584;9.694;2023-08-06T07:48:48;100174.16;;;18.67;90.94
77147;BME280;66121;52.584;9.694;2023-08-06T07:51:34;100180.97;;;18.79;94.09
77147;BME280;66121;52.584;9.694;2023-08-06T07:54:19;100184.97;;;18.91;91.41
77147;BME280;66121;52.584;9.694;2023-08-06T07:57:05;100183.88;;;19.10;90.26
77147;BME280;66121;52.584;9.694;2023-08-06T07:59:51;100183.84;;;19.22;89.60
77147;BME280;66121;52.584;9.694;2023-08-06T08:02:38;100184.66;;;19.66;88.35
77147;BME280;66121;52.584;9.694;2023-08-06T08:05:24;100174.00;;;19.18;87.72
77147;BME280;66121;52.584;9.694;2023-08-06T08:08:10;100179.63;;;19.40;86.51
77147;BME280;66121;52.584;9.694;2023-08-06T08:10:56;100150.47;;;19.06;87.30
77147;BME280;66121;52.584;9.694;2023-08-06T08:13:42;100168.38;;;19.52;86.13
77147;BME280;66121;52.584;9.694;2023-08-06T08:16:27;100173.63;;;19.93;84.33
77147;BME280;66121;52.584;9.694;2023-08-06T08:19:13;100166.94;;;20.00;83.79
77147;BME280;66121;52.584;9.694;2023-08-06T08:21:58;100152.06;;;19.51;85.54
77147;BME280;66121;52.584;9.694;2023-08-06T08:24:44;100178.72;;;20.17;85.74
77147;BME280;66121;52.584;9.694;2023-08-06T08:27:30;100176.81;;;20.14;84.06
77147;BME280;66121;52.584;9.694;2023-08-06T08:30:16;100167.94;;;19.84;85.80
77147;BME280;66121;52.584;9.694;2023-08-06T08:33:02;100170.06;;;20.02;85.07
77147;BME280;66121;52.584;9.694;2023-08-06T08:35:47;100173.41;;;20.19;85.01
77147;BME280;66121;52.584;9.694;2023-08-06T08:38:33;100168.97;;;20.30;82.77
77147;BME280;66121;52.584;9.694;2023-08-06T08:41:19;100167.97;;;20.64;83.11
77147;BME280;66121;52.584;9.694;2023-08-06T08:44:09;100159.53;;;20.46;81.09
77147;BME280;66121;52.584;9.694;2023-08-06T08:46:57;100171.47;;;21.13;83.33
77147;BME280;66121;52.584;9.694;2023-08-06T08:49:43;100168.97;;;21.15;78.96
77147;BME280;66121;52.584;9.694;2023-08-06T08:52:31;100164.41;;;21.54;79.61
77147;BME280;66121;52.584;9.694;2023-08-06T08:55:17;100164.97;;;21.95;80.59
77147;BME280;66121;52.584;9.694;2023-08-06T08:58:03;100161.38;;;21.94;80.61
77147;BME280;66121;52.584;9.694;2023-08-06T09:00:49;100148.47;;;21.78;74.24
77147;BME280;66121;52.584;9.694;2023-08-06T09:03:36;100147.81;;;21.83;74.22
77147;BME280;66121;52.584;9.694;2023-08-06T09:06:23;100148.47;;;22.20;75.04
77147;BME280;66121;52.584;9.694;2023-08-06T09:09:13;100140.47;;;21.95;72.75
77147;BME280;66121;52.584;9.694;2023-08-06T09:12:02;100152.81;;;22.54;75.92
77147;BME280;66121;52.584;9.694;2023-08-06T09:14:51;100130.81;;;23.15;70.48
77147;BME280;66121;52.584;9.694;2023-08-06T09:17:37;100116.75;;;22.76;68.43
77147;BME280;66121;52.584;9.694;2023-08-06T09:20:22;100128.78;;;23.00;68.99
77147;BME280;66121;52.584;9.694;2023-08-06T09:23:09;100110.31;;;22.99;69.13
77147;BME280;66121;52.584;9.694;2023-08-06T09:25:56;100141.50;;;23.11;72.96
77147;BME280;66121;52.584;9.694;2023-08-06T09:28:42;100134.00;;;23.46;69.51
77147;BME280;66121;52.584;9.694;2023-08-06T09:31:49;100096.13;;;22.56;65.59
77147;BME280;66121;52.584;9.694;2023-08-06T09:34:42;100124.72;;;22.78;68.35
77147;BME280;66121;52.584;9.694;2023-08-06T09:37:35;100103.06;;;23.07;63.60
77147;BME280;66121;52.584;9.694;2023-08-06T09:40:24;100104.22;;;22.63;65.50
77147;BME280;66121;52.584;9.694;2023-08-06T09:43:11;100097.63;;;22.09;68.44
77147;BME280;66121;52.584;9.694;2023-08-06T09:45:57;100131.00;;;23.11;69.62
77147;BME280;66121;52.584;9.694;2023-08-06T09:48:46;100106.56;;;23.32;65.16
77147;BME280;66121;52.584;9.694;2023-08-06T09:51:32;100097.31;;;23.02;65.10
77147;BME280;66121;52.584;9.694;2023-08-06T09:54:18;100118.91;;;23.20;71.91
77147;BME280;66121;52.584;9.694;2023-08-06T09:57:06;100095.13;;;23.79;63.61
77147;BME280;66121;52.584;9.694;2023-08-06T09:59:53;100086.88;;;23.90;60.16
77147;BME280;66121;52.584;9.694;2023-08-06T10:02:39;100109.88;;;24.18;67.33
77147;BME280;66121;52.584;9.694;2023-08-06T10:05:25;100113.84;;;24.66;67.09
77147;BME280;66121;52.584;9.694;2023-08-06T10:08:11;100057.28;;;23.65;60.17
77147;BME280;66121;52.584;9.694;2023-08-06T10:10:58;100088.25;;;23.51;63.90
77147;BME280;66121;52.584;9.694;2023-08-06T10:13:44;100100.13;;;23.55;68.83
77147;BME280;66121;52.584;9.694;2023-08-06T10:16:30;100084.97;;;24.02;63.46
77147;BME280;66121;52.584;9.694;2023-08-06T10:19:16;100074.75;;;23.69;62.35
77147;BME280;66121;52.584;9.694;2023-08-06T10:22:14;100054.47;;;23.36;60.75
77147;BME280;66121;52.584;9.694;2023-08-06T10:25:02;100073.66;;;23.82;60.48
77147;BME280;66121;52.584;9.694;2023-08-06T10:27:54;100064.88;;;23.94;60.10
77147;BME280;66121;52.584;9.694;2023-08-06T10:30:47;100043.97;;;23.22;61.55
77147;BME280;66121;52.584;9.694;2023-08-06T10:33:46;100047.16;;;22.86;63.60
77147;BME280;66121;52.584;9.694;2023-08-06T10:36:32;100044.34;;;23.59;61.82
77147;BME280;66121;52.584;9.694;2023-08-06T10:39:18;100044.25;;;24.03;59.58
77147;BME280;66121;52.584;9.694;2023-08-06T10:42:04;100079.72;;;24.44;64.98
77147;BME280;66121;52.584;9.694;2023-08-06T10:45:12;100050.41;;;23.87;62.56
77147;BME280;66121;52.584;9.694;2023-08-06T10:48:01;100035.69;;;23.77;54.78
77147;BME280;66121;52.584;9.694;2023-08-06T10:50:47;100052.41;;;24.56;59.81
77147;BME280;66121;52.584;9.694;2023-08-06T10:53:33;100057.06;;;25.25;58.78
77147;BME280;66121;52.584;9.694;2023-08-06T10:56:23;100046.28;;;24.98;57.72
77147;BME280;66121;52.584;9.694;2023-08-06T10:59:09;100040.78;;;25.14;56.35
77147;BME280;66121;52.584;9.694;2023-08-06T11:01:56;100060.81;;;26.04;59.90
77147;BME280;66121;52.584;9.694;2023-08-06T11:04:42;100023.38;;;25.84;53.80
77147;BME280;66121;52.584;9.694;2023-08-06T11:07:29;100008.41;;;25.41;50.13
77147;BME280;66121;52.584;9.694;2023-08-06T11:10:15;100013.59;;;25.79;53.47
77147;BME280;66121;52.584;9.694;2023-08-06T11:13:02;100012.28;;;26.11;51.29
77147;BME280;66121;52.584;9.694;2023-08-06T11:15:48;100010.31;;;24.52;57.48
77147;BME280;66121;52.584;9.694;2023-08-06T11:18:33;99978.41;;;24.86;48.59
77147;BME280;66121;52.584;9.694;2023-08-06T11:21:20;99987.81;;;25.66;48.82
77147;BME280;66121;52.584;9.694;2023-08-06T11:24:06;100005.78;;;26.05;50.77
77147;BME280;66121;52.584;9.694;2023-08-06T11:26:52;99999.91;;;25.67;53.82
77147;BME280;66121;52.584;9.694;2023-08-06T11:29:38;99970.41;;;24.59;52.04
77147;BME280;66121;52.584;9.694;2023-08-06T11:32:24;99959.34;;;23.95;55.50
77147;BME280;66121;52.584;9.694;2023-08-06T11:35:11;99969.41;;;23.47;59.28
77147;BME280;66121;52.584;9.694;2023-08-06T11:37:56;99952.31;;;23.21;59.92
77147;BME280;66121;52.584;9.694;2023-08-06T11:40:44;99959.03;;;23.09;60.52
77147;BME280;66121;52.584;9.694;2023-08-06T11:43:30;99948.97;;;22.88;59.25
77147;BME280;66121;52.584;9.694;2023-08-06T11:46:16;99974.88;;;24.05;57.04
77147;BME280;66121;52.584;9.694;2023-08-06T11:49:02;99955.16;;;24.51;51.88
77147;BME280;66121;52.584;9.694;2023-08-06T11:51:47;99965.59;;;24.85;52.83
77147;BME280;66121;52.584;9.694;2023-08-06T11:54:33;99948.69;;;24.91;53.00
77147;BME280;66121;52.584;9.694;2023-08-06T11:57:20;99945.13;;;24.45;52.16
77147;BME280;66121;52.584;9.694;2023-08-06T12:00:07;99931.13;;;24.10;54.22
77147;BME280;66121;52.584;9.694;2023-08-06T12:02:54;99960.38;;;24.58;56.35
77147;BME280;66121;52.584;9.694;2023-08-06T12:05:41;99960.97;;;25.45;52.32
77147;BME280;66121;52.584;9.694;2023-08-06T12:08:27;99924.25;;;25.50;49.45
77147;BME280;66121;52.584;9.694;2023-08-06T12:11:12;99959.50;;;25.55;57.91
77147;BME280;66121;52.584;9.694;2023-08-06T12:13:59;99920.56;;;25.02;55.09
77147;BME280;66121;52.584;9.694;2023-08-06T12:16:45;99921.50;;;24.42;55.66
77147;BME280;66121;52.584;9.694;2023-08-06T12:19:30;99914.81;;;24.65;52.73
77147;BME280;66121;52.584;9.694;2023-08-06T12:22:16;99953.53;;;25.90;56.78
77147;BME280;66121;52.584;9.694;2023-08-06T12:25:03;99933.16;;;26.23;54.54
77147;BME280;66121;52.584;9.694;2023-08-06T12:27:52;99911.81;;;26.33;48.46
77147;BME280;66121;52.584;9.694;2023-08-06T12:30:37;99893.53;;;25.64;49.30
77147;BME280;66121;52.584;9.694;2023-08-06T12:33:26;99901.13;;;25.10;52.66
77147;BME280;66121;52.584;9.694;2023-08-06T12:36:12;99909.31;;;25.44;55.31
77147;BME280;66121;52.584;9.694;2023-08-06T12:38:57;99901.47;;;25.23;52.21
77147;BME280;66121;52.584;9.694;2023-08-06T12:41:43;99906.22;;;25.42;53.48
77147;BME280;66121;52.584;9.694;2023-08-06T12:44:32;99913.03;;;25.62;52.75
77147;BME280;66121;52.584;9.694;2023-08-06T12:47:18;99914.22;;;25.92;51.57
77147;BME280;66121;52.584;9.694;2023-08-06T12:50:04;99907.31;;;25.98;53.00
77147;BME280;66121;52.584;9.694;2023-08-06T12:52:50;99895.13;;;25.76;54.12
77147;BME280;66121;52.584;9.694;2023-08-06T12:55:36;99889.41;;;25.59;52.64
77147;BME280;66121;52.584;9.694;2023-08-06T12:58:22;99874.84;;;24.98;52.65
77147;BME280;66121;52.584;9.694;2023-08-06T13:01:07;99869.38;;;24.63;51.98
77147;BME280;66121;52.584;9.694;2023-08-06T13:03:53;99870.00;;;24.21;56.66
77147;BME280;66121;52.584;9.694;2023-08-06T13:06:39;99895.19;;;25.08;52.59
77147;BME280;66121;52.584;9.694;2023-08-06T13:09:25;99893.19;;;24.57;56.39
77147;BME280;66121;52.584;9.694;2023-08-06T13:12:13;99875.19;;;24.28;53.96
77147;BME280;66121;52.584;9.694;2023-08-06T13:14:58;99884.06;;;24.42;55.86
77147;BME280;66121;52.584;9.694;2023-08-06T13:17:44;99881.06;;;24.25;57.39
77147;BME280;66121;52.584;9.694;2023-08-06T13:20:31;99885.50;;;24.31;57.76
77147;BME280;66121;52.584;9.694;2023-08-06T13:23:16;99881.50;;;24.95;54.88
77147;BME280;66121;52.584;9.694;2023-08-06T13:26:02;99862.16;;;25.19;50.72
77147;BME280;66121;52.584;9.694;2023-08-06T13:28:48;99881.19;;;25.24;56.25
77147;BME280;66121;52.584;9.694;2023-08-06T13:31:35;99859.91;;;24.66;56.19
77147;BME280;66121;52.584;9.694;2023-08-06T13:34:21;99870.34;;;24.80;54.90
77147;BME280;66121;52.584;9.694;2023-08-06T13:37:07;99850.44;;;24.95;50.27
77147;BME280;66121;52.584;9.694;2023-08-06T13:39:52;99878.59;;;25.57;54.03
77147;BME280;66121;52.584;9.694;2023-08-06T13:42:38;99853.56;;;24.46;51.08
77147;BME280;66121;52.584;9.694;2023-08-06T13:45:24;99848.16;;;24.16;53.00
77147;BME280;66121;52.584;9.694;2023-08-06T13:48:09;99849.31;;;23.64;53.90
77147;BME280;66121;52.584;9.694;2023-08-06T13:50:56;99855.44;;;24.03;55.14
77147;BME280;66121;52.584;9.694;2023-08-06T13:53:41;99861.22;;;24.40;52.71
77147;BME280;66121;52.584;9.694;2023-08-06T13:56:27;99836.19;;;24.78;50.05
77147;BME280;66121;52.584;9.694;2023-08-06T13:59:14;99859.81;;;25.12;51.99
77147;BME280;66121;52.584;9.694;2023-08-06T14:02:00;99851.81;;;25.05;51.96
77147;BME280;66121;52.584;9.694;2023-08-06T14:04:46;99843.38;;;25.47;49.96
77147;BME280;66121;52.584;9.694;2023-08-06T14:07:31;99858.38;;;25.70;49.89
77147;BME280;66121;52.584;9.694;2023-08-06T14:10:17;99830.06;;;25.17;49.96
77147;BME280;66121;52.584;9.694;2023-08-06T14:13:03;99855.19;;;25.51;48.69
77147;BME280;66121;52.584;9.694;2023-08-06T14:15:48;99845.09;;;25.39;46.02
77147;BME280;66121;52.584;9.694;2023-08-06T14:18:34;99863.25;;;25.70;49.94
77147;BME280;66121;52.584;9.694;2023-08-06T14:21:20;99831.31;;;25.58;47.79
77147;BME280;66121;52.584;9.694;2023-08-06T14:24:06;99838.50;;;25.53;46.75
77147;BME280;66121;52.584;9.694;2023-08-06T14:26:52;99855.91;;;26.00;49.29
77147;BME280;66121;52.584;9.694;2023-08-06T14:29:38;99849.06;;;26.29;46.50
77147;BME280;66121;52.584;9.694;2023-08-06T14:32:23;99842.13;;;26.35;47.36
77147;BME280;66121;52.584;9.694;2023-08-06T14:35:09;99845.50;;;26.39;47.90